This is the latest recevied weather packets stored in our database for station/object DG1GMY-13. If no packets are shown the sender has not sent any weather packets the latest 10 day(s).
| Time | Temp. | Humidity | Pressure | Rain* | Wind** | Luminosity | Snow |
|---|---|---|---|---|---|---|---|
| 1777286522 | 18.33° C | 39% | 1021.5 hPa | - | - | - | - |
| 1777284716 | 17.78° C | 44% | 1022.1 hPa | - | - | - | - |
| 1777282910 | 16.67° C | 49% | 1022.3 hPa | - | - | - | - |
| 1777281104 | 14.44° C | 52% | 1022.5 hPa | - | - | - | - |
| 1777279298 | 12.78° C | 57% | 1023 hPa | - | - | - | - |
| 1777277492 | 11.67° C | 61% | 1023.1 hPa | - | - | - | - |
| 1777275686 | 11.11° C | 64% | 1023.1 hPa | - | - | - | - |
| 1777273880 | 10° C | 67% | 1023.1 hPa | - | - | - | - |
| 1777272075 | 9.44° C | 70% | 1023.3 hPa | - | - | - | - |
| 1777270269 | 8.33° C | 72% | 1023.2 hPa | - | - | - | - |
| 1777268463 | 7.22° C | 74% | 1023.3 hPa | - | - | - | - |
| 1777266657 | 6.67° C | 75% | 1022.8 hPa | - | - | - | - |
| 1777264851 | 6.67° C | 73% | 1022.7 hPa | - | - | - | - |
| 1777263045 | 6.67° C | 72% | 1022.5 hPa | - | - | - | - |
| 1777261239 | 6.67° C | 71% | 1022.4 hPa | - | - | - | - |
| 1777259433 | 6.11° C | 70% | 1022.6 hPa | - | - | - | - |
| 1777257627 | 6.67° C | 69% | 1022.5 hPa | - | - | - | - |
| 1777255821 | 6.67° C | 68% | 1022.3 hPa | - | - | - | - |
| 1777254015 | 7.22° C | 66% | 1022.4 hPa | - | - | - | - |
| 1777252209 | 7.78° C | 65% | 1022.5 hPa | - | - | - | - |
| 1777250403 | 8.33° C | 63% | 1022.7 hPa | - | - | - | - |
| 1777248598 | 8.33° C | 60% | 1022.8 hPa | - | - | - | - |
* Rain since midnight (hover to see other rain measurements)
** Current wind speed in m/s (hover to see current wind gust speed)